Terminal Aerodrome Forecast
Issued by NWS Paducah, KY

Home | Current Version | Previous Version | Text Only | Print | Product List | Glossary On
Versions: 1 2 3 4 5 6 7 8 9 10 11 12 13 14 15 16 17 18 19 20 21
000
FTUS43 KPAH 261100
TAFPAH
TAF
KPAH 261120Z 2612/2712 32009KT P6SM BKN015
     FM262000 20006KT P6SM SCT025 BKN100
     FM270600 32006KT P6SM SCT020 BKN040=

USA.gov is the U.S. government's official web portal to all federal, state and local government web resources and services.